sensor_id;sensor_type;location;lat;lon;timestamp;P1;durP1;ratioP1;P2;durP2;ratioP2
76636;SDS011;65532;52.124;5.480;2023-04-06T00:02:24;7.18;;;6.13;;
76636;SDS011;65532;52.124;5.480;2023-04-06T00:04:51;7.55;;;5.60;;
76636;SDS011;65532;52.124;5.480;2023-04-06T00:07:17;8.90;;;4.55;;
76636;SDS011;65532;52.124;5.480;2023-04-06T00:09:44;8.45;;;5.25;;
76636;SDS011;65532;52.124;5.480;2023-04-06T00:12:10;21.92;;;5.38;;
76636;SDS011;65532;52.124;5.480;2023-04-06T00:14:37;9.02;;;4.72;;
76636;SDS011;65532;52.124;5.480;2023-04-06T00:17:03;9.40;;;3.40;;
76636;SDS011;65532;52.124;5.480;2023-04-06T00:19:30;11.10;;;6.22;;
76636;SDS011;65532;52.124;5.480;2023-04-06T00:21:56;10.68;;;4.80;;
76636;SDS011;65532;52.124;5.480;2023-04-06T00:24:23;7.90;;;3.63;;
76636;SDS011;65532;52.124;5.480;2023-04-06T00:26:49;10.90;;;5.18;;
76636;SDS011;65532;52.124;5.480;2023-04-06T00:29:16;9.60;;;5.32;;
76636;SDS011;65532;52.124;5.480;2023-04-06T00:31:42;8.13;;;5.25;;
76636;SDS011;65532;52.124;5.480;2023-04-06T00:34:09;8.95;;;4.40;;
76636;SDS011;65532;52.124;5.480;2023-04-06T00:36:36;9.82;;;3.38;;
76636;SDS011;65532;52.124;5.480;2023-04-06T00:39:02;7.63;;;4.22;;
76636;SDS011;65532;52.124;5.480;2023-04-06T00:41:29;7.30;;;3.97;;
76636;SDS011;65532;52.124;5.480;2023-04-06T00:43:56;7.20;;;4.70;;
76636;SDS011;65532;52.124;5.480;2023-04-06T00:46:22;8.73;;;4.80;;
76636;SDS011;65532;52.124;5.480;2023-04-06T00:48:49;7.90;;;4.75;;
76636;SDS011;65532;52.124;5.480;2023-04-06T00:51:16;9.43;;;5.47;;
76636;SDS011;65532;52.124;5.480;2023-04-06T00:53:42;9.13;;;4.95;;
76636;SDS011;65532;52.124;5.480;2023-04-06T00:56:10;7.30;;;3.63;;
76636;SDS011;65532;52.124;5.480;2023-04-06T00:58:48;8.13;;;4.80;;
76636;SDS011;65532;52.124;5.480;2023-04-06T01:01:15;7.90;;;3.85;;
76636;SDS011;65532;52.124;5.480;2023-04-06T01:03:42;9.52;;;5.03;;
76636;SDS011;65532;52.124;5.480;2023-04-06T01:06:15;11.60;;;4.68;;
76636;SDS011;65532;52.124;5.480;2023-04-06T01:08:45;9.10;;;4.85;;
76636;SDS011;65532;52.124;5.480;2023-04-06T01:11:17;8.48;;;5.28;;
76636;SDS011;65532;52.124;5.480;2023-04-06T01:13:45;10.00;;;3.67;;
76636;SDS011;65532;52.124;5.480;2023-04-06T01:16:20;7.43;;;3.47;;
76636;SDS011;65532;52.124;5.480;2023-04-06T01:19:00;10.35;;;5.75;;
76636;SDS011;65532;52.124;5.480;2023-04-06T01:21:30;8.07;;;3.97;;
76636;SDS011;65532;52.124;5.480;2023-04-06T01:24:14;8.02;;;3.50;;
76636;SDS011;65532;52.124;5.480;2023-04-06T01:27:06;8.20;;;5.15;;
76636;SDS011;65532;52.124;5.480;2023-04-06T01:29:53;7.72;;;4.30;;
76636;SDS011;65532;52.124;5.480;2023-04-06T01:32:38;9.38;;;6.20;;
76636;SDS011;65532;52.124;5.480;2023-04-06T01:35:06;8.45;;;4.03;;
76636;SDS011;65532;52.124;5.480;2023-04-06T01:37:37;10.48;;;4.13;;
76636;SDS011;65532;52.124;5.480;2023-04-06T01:40:07;8.13;;;5.38;;
76636;SDS011;65532;52.124;5.480;2023-04-06T01:42:41;8.73;;;5.88;;
76636;SDS011;65532;52.124;5.480;2023-04-06T01:45:11;10.48;;;4.82;;
76636;SDS011;65532;52.124;5.480;2023-04-06T01:47:38;7.82;;;4.78;;
76636;SDS011;65532;52.124;5.480;2023-04-06T01:50:06;9.52;;;3.58;;
76636;SDS011;65532;52.124;5.480;2023-04-06T01:52:38;6.28;;;2.95;;
76636;SDS011;65532;52.124;5.480;2023-04-06T01:55:06;7.90;;;3.65;;
76636;SDS011;65532;52.124;5.480;2023-04-06T01:57:53;6.40;;;3.20;;
76636;SDS011;65532;52.124;5.480;2023-04-06T02:00:30;6.78;;;4.78;;
76636;SDS011;65532;52.124;5.480;2023-04-06T02:02:57;10.77;;;4.70;;
76636;SDS011;65532;52.124;5.480;2023-04-06T02:05:26;7.05;;;4.30;;
76636;SDS011;65532;52.124;5.480;2023-04-06T02:07:54;8.05;;;4.82;;
76636;SDS011;65532;52.124;5.480;2023-04-06T02:10:29;8.93;;;3.15;;
76636;SDS011;65532;52.124;5.480;2023-04-06T02:12:58;8.13;;;5.28;;
76636;SDS011;65532;52.124;5.480;2023-04-06T02:15:26;5.38;;;2.42;;
76636;SDS011;65532;52.124;5.480;2023-04-06T02:17:53;6.20;;;3.05;;
76636;SDS011;65532;52.124;5.480;2023-04-06T02:20:19;4.47;;;2.72;;
76636;SDS011;65532;52.124;5.480;2023-04-06T02:22:46;7.72;;;5.22;;
76636;SDS011;65532;52.124;5.480;2023-04-06T02:25:12;10.02;;;5.07;;
76636;SDS011;65532;52.124;5.480;2023-04-06T02:27:39;5.20;;;1.92;;
76636;SDS011;65532;52.124;5.480;2023-04-06T02:30:05;9.02;;;5.47;;
76636;SDS011;65532;52.124;5.480;2023-04-06T02:32:33;6.10;;;3.40;;
76636;SDS011;65532;52.124;5.480;2023-04-06T02:35:00;8.98;;;2.38;;
76636;SDS011;65532;52.124;5.480;2023-04-06T02:37:29;10.48;;;7.03;;
76636;SDS011;65532;52.124;5.480;2023-04-06T02:39:57;8.18;;;3.95;;
76636;SDS011;65532;52.124;5.480;2023-04-06T02:42:23;6.03;;;4.13;;
76636;SDS011;65532;52.124;5.480;2023-04-06T02:44:51;11.13;;;3.55;;
76636;SDS011;65532;52.124;5.480;2023-04-06T02:47:20;8.40;;;3.55;;
76636;SDS011;65532;52.124;5.480;2023-04-06T02:49:49;9.18;;;4.70;;
76636;SDS011;65532;52.124;5.480;2023-04-06T02:52:16;7.93;;;4.10;;
76636;SDS011;65532;52.124;5.480;2023-04-06T02:54:44;7.82;;;3.42;;
76636;SDS011;65532;52.124;5.480;2023-04-06T02:57:11;7.50;;;3.25;;
76636;SDS011;65532;52.124;5.480;2023-04-06T02:59:42;6.45;;;3.63;;
76636;SDS011;65532;52.124;5.480;2023-04-06T03:02:15;9.98;;;4.55;;
76636;SDS011;65532;52.124;5.480;2023-04-06T03:04:42;7.93;;;4.47;;
76636;SDS011;65532;52.124;5.480;2023-04-06T03:07:20;7.15;;;3.00;;
76636;SDS011;65532;52.124;5.480;2023-04-06T03:09:47;8.05;;;4.10;;
76636;SDS011;65532;52.124;5.480;2023-04-06T03:12:13;7.65;;;4.35;;
76636;SDS011;65532;52.124;5.480;2023-04-06T03:15:07;5.85;;;2.90;;
76636;SDS011;65532;52.124;5.480;2023-04-06T03:17:35;9.57;;;4.32;;
76636;SDS011;65532;52.124;5.480;2023-04-06T03:20:05;7.72;;;4.35;;
76636;SDS011;65532;52.124;5.480;2023-04-06T03:22:33;6.95;;;2.63;;
76636;SDS011;65532;52.124;5.480;2023-04-06T03:25:01;5.32;;;2.83;;
76636;SDS011;65532;52.124;5.480;2023-04-06T03:27:30;5.88;;;3.00;;
76636;SDS011;65532;52.124;5.480;2023-04-06T03:29:57;5.43;;;2.22;;
76636;SDS011;65532;52.124;5.480;2023-04-06T03:32:30;6.03;;;2.50;;
76636;SDS011;65532;52.124;5.480;2023-04-06T03:34:56;7.72;;;3.15;;
76636;SDS011;65532;52.124;5.480;2023-04-06T03:37:24;6.55;;;2.97;;
76636;SDS011;65532;52.124;5.480;2023-04-06T03:39:53;6.57;;;4.05;;
76636;SDS011;65532;52.124;5.480;2023-04-06T03:42:22;6.38;;;1.98;;
76636;SDS011;65532;52.124;5.480;2023-04-06T03:44:52;7.43;;;4.03;;
76636;SDS011;65532;52.124;5.480;2023-04-06T03:47:19;9.73;;;3.78;;
76636;SDS011;65532;52.124;5.480;2023-04-06T03:49:46;7.57;;;3.55;;
76636;SDS011;65532;52.124;5.480;2023-04-06T03:52:14;7.60;;;4.72;;
76636;SDS011;65532;52.124;5.480;2023-04-06T03:54:40;9.10;;;4.07;;
76636;SDS011;65532;52.124;5.480;2023-04-06T03:57:09;8.07;;;2.95;;
76636;SDS011;65532;52.124;5.480;2023-04-06T03:59:36;9.98;;;4.57;;
76636;SDS011;65532;52.124;5.480;2023-04-06T04:02:02;8.50;;;4.88;;
76636;SDS011;65532;52.124;5.480;2023-04-06T04:04:29;9.00;;;5.15;;
76636;SDS011;65532;52.124;5.480;2023-04-06T04:06:56;8.82;;;3.42;;
76636;SDS011;65532;52.124;5.480;2023-04-06T04:09:23;8.85;;;3.97;;
76636;SDS011;65532;52.124;5.480;2023-04-06T04:11:49;8.18;;;3.67;;
76636;SDS011;65532;52.124;5.480;2023-04-06T04:14:16;9.30;;;4.68;;
76636;SDS011;65532;52.124;5.480;2023-04-06T04:16:43;7.47;;;2.85;;
76636;SDS011;65532;52.124;5.480;2023-04-06T04:19:10;6.05;;;4.05;;
76636;SDS011;65532;52.124;5.480;2023-04-06T04:21:46;7.82;;;3.97;;
76636;SDS011;65532;52.124;5.480;2023-04-06T04:24:17;7.30;;;4.53;;
76636;SDS011;65532;52.124;5.480;2023-04-06T04:26:43;6.00;;;3.78;;
76636;SDS011;65532;52.124;5.480;2023-04-06T04:29:10;9.68;;;5.13;;
76636;SDS011;65532;52.124;5.480;2023-04-06T04:31:37;7.75;;;4.18;;
76636;SDS011;65532;52.124;5.480;2023-04-06T04:34:10;10.90;;;3.63;;
76636;SDS011;65532;52.124;5.480;2023-04-06T04:36:37;10.25;;;5.18;;
76636;SDS011;65532;52.124;5.480;2023-04-06T04:39:06;6.88;;;2.60;;
76636;SDS011;65532;52.124;5.480;2023-04-06T04:41:37;9.65;;;4.95;;
76636;SDS011;65532;52.124;5.480;2023-04-06T04:44:07;7.63;;;3.67;;
76636;SDS011;65532;52.124;5.480;2023-04-06T04:46:34;6.18;;;3.03;;
76636;SDS011;65532;52.124;5.480;2023-04-06T04:49:01;7.53;;;3.47;;
76636;SDS011;65532;52.124;5.480;2023-04-06T04:51:28;7.95;;;4.20;;
76636;SDS011;65532;52.124;5.480;2023-04-06T04:54:07;8.30;;;3.10;;
76636;SDS011;65532;52.124;5.480;2023-04-06T04:56:33;6.63;;;4.05;;
76636;SDS011;65532;52.124;5.480;2023-04-06T04:59:20;5.20;;;3.47;;
76636;SDS011;65532;52.124;5.480;2023-04-06T05:01:53;8.48;;;4.38;;
76636;SDS011;65532;52.124;5.480;2023-04-06T05:04:27;7.45;;;2.58;;
76636;SDS011;65532;52.124;5.480;2023-04-06T05:07:06;7.40;;;3.35;;
76636;SDS011;65532;52.124;5.480;2023-04-06T05:09:36;8.60;;;4.53;;
76636;SDS011;65532;52.124;5.480;2023-04-06T05:12:04;8.13;;;4.28;;
76636;SDS011;65532;52.124;5.480;2023-04-06T05:14:36;10.68;;;5.55;;
76636;SDS011;65532;52.124;5.480;2023-04-06T05:17:09;12.68;;;6.30;;
76636;SDS011;65532;52.124;5.480;2023-04-06T05:19:35;11.18;;;5.50;;
76636;SDS011;65532;52.124;5.480;2023-04-06T05:22:02;18.98;;;9.70;;
76636;SDS011;65532;52.124;5.480;2023-04-06T05:24:32;8.68;;;4.38;;
76636;SDS011;65532;52.124;5.480;2023-04-06T05:26:59;10.57;;;5.75;;
76636;SDS011;65532;52.124;5.480;2023-04-06T05:29:26;11.95;;;4.35;;
76636;SDS011;65532;52.124;5.480;2023-04-06T05:31:53;4.18;;;2.95;;
76636;SDS011;65532;52.124;5.480;2023-04-06T05:34:20;9.20;;;4.78;;
76636;SDS011;65532;52.124;5.480;2023-04-06T05:36:48;11.35;;;4.43;;
76636;SDS011;65532;52.124;5.480;2023-04-06T05:41:49;9.25;;;5.95;;
76636;SDS011;65532;52.124;5.480;2023-04-06T05:44:23;11.93;;;4.50;;
76636;SDS011;65532;52.124;5.480;2023-04-06T05:47:00;10.27;;;4.97;;
76636;SDS011;65532;52.124;5.480;2023-04-06T05:49:26;7.07;;;4.53;;
76636;SDS011;65532;52.124;5.480;2023-04-06T05:51:53;7.20;;;3.58;;
76636;SDS011;65532;52.124;5.480;2023-04-06T05:54:20;9.52;;;5.40;;
76636;SDS011;65532;52.124;5.480;2023-04-06T05:56:46;11.32;;;5.00;;
76636;SDS011;65532;52.124;5.480;2023-04-06T05:59:14;10.43;;;5.68;;
76636;SDS011;65532;52.124;5.480;2023-04-06T06:01:42;12.40;;;4.97;;
76636;SDS011;65532;52.124;5.480;2023-04-06T06:04:09;7.68;;;4.90;;
76636;SDS011;65532;52.124;5.480;2023-04-06T06:06:37;9.95;;;5.53;;
76636;SDS011;65532;52.124;5.480;2023-04-06T06:09:10;10.85;;;5.55;;
76636;SDS011;65532;52.124;5.480;2023-04-06T06:11:43;8.70;;;3.90;;
76636;SDS011;65532;52.124;5.480;2023-04-06T06:14:13;10.10;;;4.43;;
76636;SDS011;65532;52.124;5.480;2023-04-06T06:16:40;11.55;;;3.80;;
76636;SDS011;65532;52.124;5.480;2023-04-06T06:19:09;7.07;;;4.00;;
76636;SDS011;65532;52.124;5.480;2023-04-06T06:21:36;11.05;;;5.50;;
76636;SDS011;65532;52.124;5.480;2023-04-06T06:24:04;12.43;;;6.50;;
76636;SDS011;65532;52.124;5.480;2023-04-06T06:26:32;8.43;;;5.68;;
76636;SDS011;65532;52.124;5.480;2023-04-06T06:28:59;7.15;;;3.58;;
76636;SDS011;65532;52.124;5.480;2023-04-06T06:31:25;13.75;;;4.95;;
76636;SDS011;65532;52.124;5.480;2023-04-06T06:33:53;7.38;;;3.15;;
76636;SDS011;65532;52.124;5.480;2023-04-06T06:36:20;10.75;;;5.28;;
76636;SDS011;65532;52.124;5.480;2023-04-06T06:38:46;8.57;;;4.25;;
76636;SDS011;65532;52.124;5.480;2023-04-06T06:41:15;14.00;;;6.28;;
76636;SDS011;65532;52.124;5.480;2023-04-06T06:43:42;13.68;;;6.50;;
76636;SDS011;65532;52.124;5.480;2023-04-06T06:46:10;11.00;;;5.88;;
76636;SDS011;65532;52.124;5.480;2023-04-06T06:48:38;8.35;;;3.95;;
76636;SDS011;65532;52.124;5.480;2023-04-06T06:51:05;8.93;;;4.53;;
76636;SDS011;65532;52.124;5.480;2023-04-06T06:53:31;11.13;;;7.45;;
76636;SDS011;65532;52.124;5.480;2023-04-06T06:55:58;7.80;;;3.65;;
76636;SDS011;65532;52.124;5.480;2023-04-06T06:58:25;14.82;;;6.00;;
76636;SDS011;65532;52.124;5.480;2023-04-06T07:00:56;12.48;;;6.13;;
76636;SDS011;65532;52.124;5.480;2023-04-06T07:03:23;11.85;;;6.15;;
76636;SDS011;65532;52.124;5.480;2023-04-06T07:05:50;15.20;;;7.97;;
76636;SDS011;65532;52.124;5.480;2023-04-06T07:08:22;16.77;;;5.72;;
76636;SDS011;65532;52.124;5.480;2023-04-06T07:10:50;13.38;;;7.53;;
76636;SDS011;65532;52.124;5.480;2023-04-06T07:13:19;14.32;;;4.93;;
76636;SDS011;65532;52.124;5.480;2023-04-06T07:15:52;11.75;;;4.85;;
76636;SDS011;65532;52.124;5.480;2023-04-06T07:18:19;12.75;;;7.55;;
76636;SDS011;65532;52.124;5.480;2023-04-06T07:20:47;10.38;;;6.43;;
76636;SDS011;65532;52.124;5.480;2023-04-06T07:23:14;15.93;;;7.60;;
76636;SDS011;65532;52.124;5.480;2023-04-06T07:25:41;10.95;;;5.93;;
76636;SDS011;65532;52.124;5.480;2023-04-06T07:28:08;15.43;;;8.50;;
76636;SDS011;65532;52.124;5.480;2023-04-06T07:30:36;14.02;;;6.82;;
76636;SDS011;65532;52.124;5.480;2023-04-06T07:33:04;12.65;;;7.80;;
76636;SDS011;65532;52.124;5.480;2023-04-06T07:35:33;17.48;;;8.40;;
76636;SDS011;65532;52.124;5.480;2023-04-06T07:38:01;11.00;;;4.60;;
76636;SDS011;65532;52.124;5.480;2023-04-06T07:40:29;15.25;;;7.30;;
76636;SDS011;65532;52.124;5.480;2023-04-06T07:42:58;15.25;;;6.10;;
76636;SDS011;65532;52.124;5.480;2023-04-06T07:45:25;18.23;;;6.60;;
76636;SDS011;65532;52.124;5.480;2023-04-06T07:47:52;14.60;;;7.38;;
76636;SDS011;65532;52.124;5.480;2023-04-06T07:50:18;17.02;;;8.52;;
76636;SDS011;65532;52.124;5.480;2023-04-06T07:52:46;8.13;;;4.80;;
76636;SDS011;65532;52.124;5.480;2023-04-06T07:55:13;12.38;;;5.85;;
76636;SDS011;65532;52.124;5.480;2023-04-06T07:57:39;11.95;;;6.28;;
76636;SDS011;65532;52.124;5.480;2023-04-06T08:00:06;13.05;;;8.18;;
76636;SDS011;65532;52.124;5.480;2023-04-06T08:02:38;11.05;;;6.93;;
76636;SDS011;65532;52.124;5.480;2023-04-06T08:05:05;13.05;;;7.47;;
76636;SDS011;65532;52.124;5.480;2023-04-06T08:07:32;11.98;;;5.63;;
76636;SDS011;65532;52.124;5.480;2023-04-06T08:09:58;15.70;;;9.20;;
76636;SDS011;65532;52.124;5.480;2023-04-06T08:12:24;13.45;;;7.30;;
76636;SDS011;65532;52.124;5.480;2023-04-06T08:14:51;14.90;;;7.40;;
76636;SDS011;65532;52.124;5.480;2023-04-06T08:17:18;13.77;;;8.90;;
76636;SDS011;65532;52.124;5.480;2023-04-06T08:19:44;19.27;;;8.07;;
76636;SDS011;65532;52.124;5.480;2023-04-06T08:22:11;16.92;;;8.63;;
76636;SDS011;65532;52.124;5.480;2023-04-06T08:24:37;16.52;;;7.22;;
76636;SDS011;65532;52.124;5.480;2023-04-06T08:27:04;14.75;;;8.00;;
76636;SDS011;65532;52.124;5.480;2023-04-06T08:29:31;17.15;;;7.18;;
76636;SDS011;65532;52.124;5.480;2023-04-06T08:31:57;21.90;;;9.32;;
76636;SDS011;65532;52.124;5.480;2023-04-06T08:34:24;10.93;;;5.97;;
76636;SDS011;65532;52.124;5.480;2023-04-06T08:36:50;16.70;;;7.82;;
76636;SDS011;65532;52.124;5.480;2023-04-06T08:39:17;10.55;;;5.80;;
76636;SDS011;65532;52.124;5.480;2023-04-06T08:41:43;11.30;;;4.82;;
76636;SDS011;65532;52.124;5.480;2023-04-06T08:44:10;14.00;;;8.07;;
76636;SDS011;65532;52.124;5.480;2023-04-06T08:46:37;17.55;;;9.60;;
76636;SDS011;65532;52.124;5.480;2023-04-06T08:49:04;14.68;;;7.22;;
76636;SDS011;65532;52.124;5.480;2023-04-06T08:51:33;18.38;;;8.55;;
76636;SDS011;65532;52.124;5.480;2023-04-06T08:54:04;15.25;;;7.68;;
76636;SDS011;65532;52.124;5.480;2023-04-06T08:56:31;14.50;;;6.28;;
76636;SDS011;65532;52.124;5.480;2023-04-06T08:58:58;14.02;;;5.68;;
76636;SDS011;65532;52.124;5.480;2023-04-06T09:01:26;17.38;;;8.50;;
76636;SDS011;65532;52.124;5.480;2023-04-06T09:03:57;21.52;;;10.30;;
76636;SDS011;65532;52.124;5.480;2023-04-06T09:06:26;17.50;;;9.30;;
76636;SDS011;65532;52.124;5.480;2023-04-06T09:08:53;14.63;;;6.18;;
76636;SDS011;65532;52.124;5.480;2023-04-06T09:11:21;12.48;;;8.20;;
76636;SDS011;65532;52.124;5.480;2023-04-06T09:13:48;18.33;;;10.02;;
76636;SDS011;65532;52.124;5.480;2023-04-06T09:16:16;15.65;;;9.65;;
76636;SDS011;65532;52.124;5.480;2023-04-06T09:18:44;19.05;;;11.13;;
76636;SDS011;65532;52.124;5.480;2023-04-06T09:21:11;21.40;;;9.10;;
76636;SDS011;65532;52.124;5.480;2023-04-06T09:23:37;17.70;;;11.23;;
76636;SDS011;65532;52.124;5.480;2023-04-06T09:26:11;18.75;;;10.63;;
76636;SDS011;65532;52.124;5.480;2023-04-06T09:28:44;14.57;;;9.18;;
76636;SDS011;65532;52.124;5.480;2023-04-06T09:31:13;15.10;;;7.55;;
76636;SDS011;65532;52.124;5.480;2023-04-06T09:33:48;22.85;;;10.32;;
76636;SDS011;65532;52.124;5.480;2023-04-06T09:36:15;20.02;;;10.52;;
76636;SDS011;65532;52.124;5.480;2023-04-06T09:38:52;18.45;;;8.90;;
76636;SDS011;65532;52.124;5.480;2023-04-06T09:41:25;16.95;;;9.77;;
76636;SDS011;65532;52.124;5.480;2023-04-06T09:44:03;13.45;;;6.55;;
76636;SDS011;65532;52.124;5.480;2023-04-06T09:46:32;17.27;;;10.85;;
76636;SDS011;65532;52.124;5.480;2023-04-06T09:49:20;22.40;;;9.63;;
76636;SDS011;65532;52.124;5.480;2023-04-06T09:51:51;18.73;;;10.35;;
76636;SDS011;65532;52.124;5.480;2023-04-06T09:54:21;16.38;;;9.35;;
76636;SDS011;65532;52.124;5.480;2023-04-06T09:59:31;16.02;;;8.38;;
76636;SDS011;65532;52.124;5.480;2023-04-06T10:02:12;21.33;;;10.20;;
76636;SDS011;65532;52.124;5.480;2023-04-06T10:04:58;22.88;;;9.90;;
76636;SDS011;65532;52.124;5.480;2023-04-06T10:07:46;20.90;;;11.10;;
76636;SDS011;65532;52.124;5.480;2023-04-06T10:10:22;21.92;;;10.88;;
76636;SDS011;65532;52.124;5.480;2023-04-06T10:12:48;14.35;;;8.93;;
76636;SDS011;65532;52.124;5.480;2023-04-06T10:15:16;19.73;;;10.98;;
76636;SDS011;65532;52.124;5.480;2023-04-06T10:17:46;18.83;;;9.40;;
76636;SDS011;65532;52.124;5.480;2023-04-06T10:20:17;17.45;;;8.05;;
76636;SDS011;65532;52.124;5.480;2023-04-06T10:22:58;13.40;;;6.00;;
76636;SDS011;65532;52.124;5.480;2023-04-06T10:25:32;23.50;;;11.10;;
76636;SDS011;65532;52.124;5.480;2023-04-06T10:28:00;22.13;;;8.90;;
76636;SDS011;65532;52.124;5.480;2023-04-06T10:30:27;19.70;;;9.20;;
76636;SDS011;65532;52.124;5.480;2023-04-06T10:32:54;19.05;;;8.20;;
76636;SDS011;65532;52.124;5.480;2023-04-06T10:35:20;16.95;;;9.27;;
76636;SDS011;65532;52.124;5.480;2023-04-06T10:38:01;18.13;;;9.77;;
76636;SDS011;65532;52.124;5.480;2023-04-06T10:40:29;18.52;;;7.50;;
76636;SDS011;65532;52.124;5.480;2023-04-06T10:46:00;14.18;;;7.47;;
76636;SDS011;65532;52.124;5.480;2023-04-06T10:48:42;14.57;;;8.00;;
76636;SDS011;65532;52.124;5.480;2023-04-06T10:51:12;13.40;;;7.00;;
76636;SDS011;65532;52.124;5.480;2023-04-06T10:53:47;10.98;;;5.90;;
76636;SDS011;65532;52.124;5.480;2023-04-06T10:56:16;14.65;;;7.22;;
76636;SDS011;65532;52.124;5.480;2023-04-06T10:58:44;7.97;;;3.53;;
76636;SDS011;65532;52.124;5.480;2023-04-06T11:01:12;7.75;;;4.18;;
76636;SDS011;65532;52.124;5.480;2023-04-06T11:03:44;8.48;;;3.75;;
76636;SDS011;65532;52.124;5.480;2023-04-06T11:06:19;6.57;;;3.13;;
76636;SDS011;65532;52.124;5.480;2023-04-06T11:08:46;6.32;;;2.55;;
76636;SDS011;65532;52.124;5.480;2023-04-06T11:11:14;8.07;;;3.00;;
76636;SDS011;65532;52.124;5.480;2023-04-06T11:13:45;7.82;;;3.50;;
76636;SDS011;65532;52.124;5.480;2023-04-06T11:16:18;7.78;;;3.83;;
76636;SDS011;65532;52.124;5.480;2023-04-06T11:18:47;6.90;;;3.88;;
76636;SDS011;65532;52.124;5.480;2023-04-06T11:21:40;7.90;;;3.88;;
76636;SDS011;65532;52.124;5.480;2023-04-06T11:24:21;5.97;;;3.50;;
76636;SDS011;65532;52.124;5.480;2023-04-06T11:26:58;6.57;;;3.05;;
76636;SDS011;65532;52.124;5.480;2023-04-06T11:29:27;10.00;;;3.55;;
76636;SDS011;65532;52.124;5.480;2023-04-06T11:32:01;6.88;;;5.03;;
76636;SDS011;65532;52.124;5.480;2023-04-06T11:34:29;7.22;;;2.83;;
76636;SDS011;65532;52.124;5.480;2023-04-06T11:36:57;6.55;;;2.65;;
76636;SDS011;65532;52.124;5.480;2023-04-06T11:39:26;6.20;;;2.78;;
76636;SDS011;65532;52.124;5.480;2023-04-06T11:41:55;5.65;;;2.78;;
76636;SDS011;65532;52.124;5.480;2023-04-06T11:44:28;5.45;;;2.75;;
76636;SDS011;65532;52.124;5.480;2023-04-06T11:46:57;5.07;;;2.15;;
76636;SDS011;65532;52.124;5.480;2023-04-06T11:49:27;5.03;;;1.88;;
76636;SDS011;65532;52.124;5.480;2023-04-06T11:51:55;6.00;;;2.97;;
76636;SDS011;65532;52.124;5.480;2023-04-06T11:54:29;8.85;;;2.17;;
76636;SDS011;65532;52.124;5.480;2023-04-06T11:56:56;4.60;;;2.33;;
76636;SDS011;65532;52.124;5.480;2023-04-06T11:59:23;9.48;;;2.53;;
76636;SDS011;65532;52.124;5.480;2023-04-06T12:01:49;5.20;;;2.67;;
76636;SDS011;65532;52.124;5.480;2023-04-06T12:04:16;6.35;;;1.80;;
76636;SDS011;65532;52.124;5.480;2023-04-06T12:06:43;5.85;;;2.22;;
76636;SDS011;65532;52.124;5.480;2023-04-06T12:09:10;6.20;;;2.17;;
76636;SDS011;65532;52.124;5.480;2023-04-06T12:11:36;5.28;;;2.15;;
76636;SDS011;65532;52.124;5.480;2023-04-06T12:14:04;4.40;;;3.70;;
76636;SDS011;65532;52.124;5.480;2023-04-06T12:16:31;5.57;;;2.78;;
76636;SDS011;65532;52.124;5.480;2023-04-06T12:18:57;5.13;;;1.63;;
76636;SDS011;65532;52.124;5.480;2023-04-06T12:21:24;6.63;;;2.75;;
76636;SDS011;65532;52.124;5.480;2023-04-06T12:23:50;7.97;;;3.58;;
76636;SDS011;65532;52.124;5.480;2023-04-06T12:26:17;4.95;;;2.35;;
76636;SDS011;65532;52.124;5.480;2023-04-06T12:28:43;4.10;;;1.35;;
76636;SDS011;65532;52.124;5.480;2023-04-06T12:31:14;5.50;;;2.38;;
76636;SDS011;65532;52.124;5.480;2023-04-06T12:33:48;5.25;;;3.92;;
76636;SDS011;65532;52.124;5.480;2023-04-06T12:36:16;3.83;;;1.25;;
76636;SDS011;65532;52.124;5.480;2023-04-06T12:38:48;4.20;;;1.85;;
76636;SDS011;65532;52.124;5.480;2023-04-06T12:41:16;5.65;;;2.50;;
76636;SDS011;65532;52.124;5.480;2023-04-06T12:43:43;6.95;;;2.90;;
76636;SDS011;65532;52.124;5.480;2023-04-06T12:46:10;5.38;;;2.65;;
76636;SDS011;65532;52.124;5.480;2023-04-06T12:48:37;5.88;;;4.43;;
76636;SDS011;65532;52.124;5.480;2023-04-06T12:51:05;7.63;;;2.53;;
76636;SDS011;65532;52.124;5.480;2023-04-06T12:53:33;6.55;;;2.40;;
76636;SDS011;65532;52.124;5.480;2023-04-06T12:56:00;5.25;;;2.58;;
76636;SDS011;65532;52.124;5.480;2023-04-06T12:58:28;7.70;;;3.55;;
76636;SDS011;65532;52.124;5.480;2023-04-06T13:00:57;8.32;;;4.38;;
76636;SDS011;65532;52.124;5.480;2023-04-06T13:03:28;4.28;;;2.05;;
76636;SDS011;65532;52.124;5.480;2023-04-06T13:05:56;5.32;;;2.47;;
76636;SDS011;65532;52.124;5.480;2023-04-06T13:08:22;6.70;;;2.10;;
76636;SDS011;65532;52.124;5.480;2023-04-06T13:10:49;8.80;;;3.53;;
76636;SDS011;65532;52.124;5.480;2023-04-06T13:13:17;6.70;;;4.05;;
76636;SDS011;65532;52.124;5.480;2023-04-06T13:15:44;6.32;;;2.40;;
76636;SDS011;65532;52.124;5.480;2023-04-06T13:18:11;5.45;;;2.55;;
76636;SDS011;65532;52.124;5.480;2023-04-06T13:20:37;5.35;;;2.92;;
76636;SDS011;65532;52.124;5.480;2023-04-06T13:23:04;6.25;;;2.35;;
76636;SDS011;65532;52.124;5.480;2023-04-06T13:25:30;7.43;;;2.80;;
76636;SDS011;65532;52.124;5.480;2023-04-06T13:27:58;3.38;;;1.67;;
76636;SDS011;65532;52.124;5.480;2023-04-06T13:30:25;3.83;;;1.60;;
76636;SDS011;65532;52.124;5.480;2023-04-06T13:32:52;4.75;;;2.63;;
76636;SDS011;65532;52.124;5.480;2023-04-06T13:35:18;4.10;;;1.30;;
76636;SDS011;65532;52.124;5.480;2023-04-06T13:37:45;10.85;;;3.30;;
76636;SDS011;65532;52.124;5.480;2023-04-06T13:40:12;8.07;;;3.45;;
76636;SDS011;65532;52.124;5.480;2023-04-06T13:42:38;4.20;;;3.20;;
76636;SDS011;65532;52.124;5.480;2023-04-06T13:45:07;7.30;;;3.10;;
76636;SDS011;65532;52.124;5.480;2023-04-06T13:47:34;5.82;;;1.55;;
76636;SDS011;65532;52.124;5.480;2023-04-06T13:50:01;8.07;;;4.20;;
76636;SDS011;65532;52.124;5.480;2023-04-06T13:52:27;6.63;;;3.22;;
76636;SDS011;65532;52.124;5.480;2023-04-06T13:54:53;7.55;;;4.03;;
76636;SDS011;65532;52.124;5.480;2023-04-06T13:57:20;7.45;;;4.68;;
76636;SDS011;65532;52.124;5.480;2023-04-06T13:59:47;6.63;;;3.15;;
76636;SDS011;65532;52.124;5.480;2023-04-06T14:02:15;5.78;;;3.50;;
76636;SDS011;65532;52.124;5.480;2023-04-06T14:04:42;5.68;;;3.58;;
76636;SDS011;65532;52.124;5.480;2023-04-06T14:07:09;11.13;;;3.85;;
76636;SDS011;65532;52.124;5.480;2023-04-06T14:09:35;7.00;;;2.63;;
76636;SDS011;65532;52.124;5.480;2023-04-06T14:12:02;10.15;;;4.15;;
76636;SDS011;65532;52.124;5.480;2023-04-06T14:14:28;6.10;;;2.22;;
76636;SDS011;65532;52.124;5.480;2023-04-06T14:16:55;4.97;;;2.47;;
76636;SDS011;65532;52.124;5.480;2023-04-06T14:19:21;3.53;;;1.73;;
76636;SDS011;65532;52.124;5.480;2023-04-06T14:21:48;7.32;;;3.55;;
76636;SDS011;65532;52.124;5.480;2023-04-06T14:24:15;4.50;;;1.35;;
76636;SDS011;65532;52.124;5.480;2023-04-06T14:26:42;5.43;;;2.92;;
76636;SDS011;65532;52.124;5.480;2023-04-06T14:29:08;5.15;;;2.25;;
76636;SDS011;65532;52.124;5.480;2023-04-06T14:31:36;6.85;;;4.22;;
76636;SDS011;65532;52.124;5.480;2023-04-06T14:34:03;4.15;;;1.77;;
76636;SDS011;65532;52.124;5.480;2023-04-06T14:36:32;6.28;;;2.88;;
76636;SDS011;65532;52.124;5.480;2023-04-06T14:39:03;4.13;;;2.70;;
76636;SDS011;65532;52.124;5.480;2023-04-06T14:41:31;3.35;;;2.47;;
76636;SDS011;65532;52.124;5.480;2023-04-06T14:43:59;5.38;;;2.85;;
76636;SDS011;65532;52.124;5.480;2023-04-06T14:46:26;7.63;;;2.60;;
76636;SDS011;65532;52.124;5.480;2023-04-06T14:48:56;3.85;;;1.27;;
76636;SDS011;65532;52.124;5.480;2023-04-06T14:53:51;6.13;;;3.90;;
76636;SDS011;65532;52.124;5.480;2023-04-06T14:56:21;4.70;;;2.83;;
76636;SDS011;65532;52.124;5.480;2023-04-06T14:58:49;5.03;;;1.98;;
76636;SDS011;65532;52.124;5.480;2023-04-06T15:01:17;8.25;;;3.40;;
76636;SDS011;65532;52.124;5.480;2023-04-06T15:03:45;4.75;;;3.30;;
76636;SDS011;65532;52.124;5.480;2023-04-06T15:06:12;8.82;;;4.47;;